Time;durP1;ratioP1;P1;durP2;ratioP2;P2;SDS_P1;SDS_P2;PMS_P1;PMS_P2;Temp;Humidity;BMP_temperature;BMP_pressure;BME280_temperature;BME280_humidity;BME280_pressure;Samples;Min_cycle;Max_cycle;Signal;HPM_P1;HPM_P2
2022/09/29 00:01:56;;;;;;;6.07;4.85;;;8.10;99.90;;;;;;5123499;27;20039;-86
2022/09/29 00:04:22;;;;;;;7.15;5.32;;;8.10;99.90;;;;;;5158069;27;20052;-86
2022/09/29 00:06:48;;;;;;;7.05;4.95;;;8.20;99.90;;;;;;5119748;27;20043;-85
2022/09/29 00:09:13;;;;;;;7.30;5.00;;;8.20;99.90;;;;;;5138410;27;20034;-85
2022/09/29 00:11:39;;;;;;;8.27;5.80;;;8.10;99.90;;;;;;5122774;27;20050;-86
2022/09/29 00:14:05;;;;;;;8.38;5.60;;;8.10;99.90;;;;;;5122903;27;20031;-85
2022/09/29 00:16:30;;;;;;;9.07;4.88;;;8.10;99.90;;;;;;5111391;27;20479;-85
2022/09/29 00:18:56;;;;;;;6.00;5.40;;;8.10;99.90;;;;;;5105777;27;20041;-86
2022/09/29 00:21:22;;;;;;;6.40;5.50;;;8.00;99.90;;;;;;5139963;27;20030;-86
2022/09/29 00:23:49;;;;;;;9.27;5.50;;;8.00;99.90;;;;;;5120282;27;20035;-85
2022/09/29 00:26:23;;;;;;;6.05;5.35;;;8.60;99.90;;;;;;5130035;27;20495;-86
2022/09/29 00:28:57;;;;;;;6.50;5.90;;;8.00;99.90;;;;;;5141086;27;20034;-86
2022/09/29 00:31:27;;;;;;;6.22;5.45;;;7.90;99.90;;;;;;5141078;27;20554;-86
2022/09/29 00:33:53;;;;;;;6.10;5.50;;;7.90;99.90;;;;;;5141017;27;20509;-86
2022/09/29 00:36:21;;;;;;;6.57;5.22;;;7.90;99.90;;;;;;5141080;27;20031;-85
2022/09/29 00:38:48;;;;;;;7.20;6.03;;;7.90;99.90;;;;;;5140100;27;20045;-84
2022/09/29 00:41:17;;;;;;;7.18;5.60;;;7.90;99.90;;;;;;5119116;27;20035;-86
2022/09/29 00:43:45;;;;;;;9.68;5.50;;;8.70;99.90;;;;;;5123136;27;20035;-85
2022/09/29 00:46:13;;;;;;;7.22;6.50;;;8.10;99.90;;;;;;5127191;27;20420;-86
2022/09/29 00:48:40;;;;;;;10.00;6.13;;;7.80;99.90;;;;;;5133292;27;20376;-86
2022/09/29 00:51:06;;;;;;;6.40;5.80;;;7.80;99.90;;;;;;5119310;27;20071;-85
2022/09/29 00:53:33;;;;;;;7.32;5.68;;;7.90;99.90;;;;;;5122401;27;20090;-86
2022/09/29 00:56:04;;;;;;;6.82;5.68;;;7.90;99.90;;;;;;5130596;27;20031;-86
2022/09/29 00:58:46;;;;;;;6.07;5.45;;;7.80;99.90;;;;;;5131590;27;20046;-86
2022/09/29 01:01:12;;;;;;;6.93;5.53;;;7.70;99.90;;;;;;5157093;27;20073;-87
2022/09/29 01:03:42;;;;;;;7.30;5.43;;;7.70;99.90;;;;;;5124114;27;20113;-86
2022/09/29 01:06:29;;;;;;;5.75;5.20;;;7.80;99.90;;;;;;5124266;27;20039;-87
2022/09/29 01:08:56;;;;;;;7.88;5.72;;;7.60;99.90;;;;;;5136401;27;20042;-86
2022/09/29 01:11:23;;;;;;;8.52;5.90;;;7.60;99.90;;;;;;5137565;27;20168;-86
2022/09/29 01:13:49;;;;;;;5.90;5.30;;;8.60;99.90;;;;;;5124529;27;20615;-86
2022/09/29 01:16:16;;;;;;;5.78;5.07;;;7.50;99.90;;;;;;5149973;27;20517;-86
2022/09/29 01:18:43;;;;;;;6.07;5.40;;;7.40;99.90;;;;;;5119587;27;20039;-86
2022/09/29 01:21:51;;;;;;;6.43;5.57;;;7.40;99.90;;;;;;5102414;27;20039;-86
2022/09/29 01:24:50;;;;;;;7.53;5.20;;;7.40;99.90;;;;;;5126175;27;20046;-86
2022/09/29 01:27:50;;;;;;;5.93;5.32;;;7.40;99.90;;;;;;5119305;27;20046;-86
2022/09/29 01:30:39;;;;;;;6.25;5.25;;;7.40;99.90;;;;;;5133076;27;20044;-86
2022/09/29 01:33:16;;;;;;;7.45;6.00;;;7.40;99.90;;;;;;5118672;27;20395;-86
2022/09/29 01:35:47;;;;;;;6.10;5.45;;;7.40;99.90;;;;;;5118533;27;20459;-86
2022/09/29 01:39:10;;;;;;;7.03;4.85;;;7.30;99.90;;;;;;5118993;27;20352;-86
2022/09/29 01:41:45;;;;;;;6.90;5.30;;;7.30;99.90;;;;;;5060788;28;20036;-86
2022/09/29 01:44:20;;;;;;;6.43;5.57;;;7.30;99.90;;;;;;5075977;28;20040;-86
2022/09/29 01:46:57;;;;;;;7.50;5.22;;;7.90;99.90;;;;;;5105175;27;20043;-86
2022/09/29 01:49:26;;;;;;;6.38;5.68;;;7.20;99.90;;;;;;5121818;27;20050;-86
2022/09/29 01:51:56;;;;;;;6.60;5.18;;;7.30;99.90;;;;;;5150399;27;20038;-86
2022/09/29 01:54:28;;;;;;;8.00;5.78;;;7.20;99.90;;;;;;5154652;27;20094;-86
2022/09/29 01:57:01;;;;;;;7.03;5.55;;;7.30;99.90;;;;;;5154509;27;20471;-87
2022/09/29 01:59:48;;;;;;;9.65;5.78;;;7.20;99.90;;;;;;5138022;27;20386;-86
2022/09/29 02:02:26;;;;;;;8.80;5.60;;;7.10;99.90;;;;;;5131954;27;20034;-86
2022/09/29 02:05:00;;;;;;;6.25;5.22;;;7.20;99.90;;;;;;5146069;27;20035;-86
2022/09/29 02:07:33;;;;;;;6.05;5.38;;;7.80;99.90;;;;;;5122290;27;20049;-86
2022/09/29 02:10:11;;;;;;;6.55;5.45;;;7.10;99.90;;;;;;5134532;27;20039;-87
2022/09/29 02:12:39;;;;;;;6.45;5.43;;;7.00;99.90;;;;;;5118254;27;20066;-85
2022/09/29 02:15:08;;;;;;;7.28;5.35;;;7.00;99.90;;;;;;5118933;27;20134;-85
2022/09/29 02:17:38;;;;;;;6.65;5.70;;;7.00;99.90;;;;;;5117802;27;20041;-85
2022/09/29 02:20:04;;;;;;;7.47;5.53;;;7.00;99.90;;;;;;5175106;27;20044;-85
2022/09/29 02:22:34;;;;;;;7.88;5.60;;;7.00;99.90;;;;;;5177350;27;20055;-85
2022/09/29 02:25:00;;;;;;;7.18;5.95;;;7.80;99.90;;;;;;5165040;27;20035;-85
2022/09/29 02:27:29;;;;;;;8.07;5.82;;;6.90;99.90;;;;;;5100347;27;20114;-85
2022/09/29 02:29:58;;;;;;;7.95;5.80;;;7.20;99.90;;;;;;5131096;27;20073;-85
2022/09/29 02:32:24;;;;;;;7.57;5.72;;;7.10;99.90;;;;;;5140063;27;20486;-85
2022/09/29 02:34:52;;;;;;;9.93;5.90;;;8.10;99.90;;;;;;5121725;27;20042;-86
2022/09/29 02:37:35;;;;;;;6.45;5.53;;;6.90;99.90;;;;;;5117365;27;20436;-85
2022/09/29 02:40:20;;;;;;;8.15;5.63;;;6.90;99.90;;;;;;5128962;27;20171;-85
2022/09/29 02:42:58;;;;;;;7.88;5.85;;;6.80;99.90;;;;;;5137062;27;20031;-86
2022/09/29 02:45:23;;;;;;;7.72;5.82;;;6.80;99.90;;;;;;5137079;27;20049;-85
2022/09/29 02:48:01;;;;;;;6.75;5.95;;;7.20;99.90;;;;;;5133873;27;20043;-85
2022/09/29 02:50:33;;;;;;;7.13;5.22;;;6.80;99.90;;;;;;5137123;27;20049;-85
2022/09/29 02:53:43;;;;;;;7.88;5.85;;;6.80;99.90;;;;;;5136191;27;20125;-85
2022/09/29 02:56:23;;;;;;;7.57;6.13;;;6.80;99.90;;;;;;5129206;27;20070;-85
2022/09/29 02:59:07;;;;;;;6.90;6.20;;;6.70;99.90;;;;;;5137191;27;20490;-85
2022/09/29 03:01:33;;;;;;;6.72;6.00;;;6.70;99.90;;;;;;5139506;27;20034;-85
2022/09/29 03:04:00;;;;;;;7.88;6.32;;;7.40;99.90;;;;;;5118268;28;20031;-85
2022/09/29 03:06:26;;;;;;;8.90;6.72;;;6.70;99.90;;;;;;5119938;27;20491;-85
2022/09/29 03:08:52;;;;;;;8.05;6.82;;;6.70;99.90;;;;;;5093061;27;20035;-85
2022/09/29 03:11:18;;;;;;;8.32;6.30;;;7.30;99.90;;;;;;5116646;27;20079;-85
2022/09/29 03:13:45;;;;;;;9.45;7.03;;;6.70;99.90;;;;;;5107695;27;20034;-85
2022/09/29 03:16:10;;;;;;;8.95;6.15;;;6.70;99.90;;;;;;5108540;27;20035;-85
2022/09/29 03:18:36;;;;;;;7.38;6.47;;;6.70;99.90;;;;;;5106789;27;20114;-85
2022/09/29 03:21:02;;;;;;;8.10;6.28;;;6.60;99.90;;;;;;5124065;27;20047;-85
2022/09/29 03:23:28;;;;;;;10.50;7.25;;;6.60;99.90;;;;;;5140997;27;20406;-86
2022/09/29 03:25:53;;;;;;;43.20;7.78;;;7.00;99.90;;;;;;5124303;27;20027;-85
2022/09/29 03:28:19;;;;;;;29.85;8.27;;;6.70;99.90;;;;;;5123806;27;20478;-85
2022/09/29 03:30:45;;;;;;;46.42;8.43;;;7.10;99.90;;;;;;5157342;27;20058;-85
2022/09/29 03:33:11;;;;;;;121.25;9.90;;;6.60;99.90;;;;;;5126229;27;20036;-86
2022/09/29 03:35:37;;;;;;;67.65;7.82;;;6.60;99.90;;;;;;5137762;27;20138;-85
2022/09/29 03:38:03;;;;;;;84.90;8.77;;;6.70;99.90;;;;;;5120722;27;20135;-85
2022/09/29 03:40:28;;;;;;;105.53;9.40;;;6.40;99.90;;;;;;5116511;27;20039;-85
2022/09/29 03:42:54;;;;;;;51.90;7.80;;;6.30;99.90;;;;;;5139875;27;20076;-85
2022/09/29 03:45:20;;;;;;;49.17;8.75;;;6.70;99.90;;;;;;5139715;27;20392;-85
2022/09/29 03:47:45;;;;;;;74.85;8.63;;;6.30;99.90;;;;;;5103297;27;20525;-85
2022/09/29 03:50:12;;;;;;;51.00;7.90;;;6.20;99.90;;;;;;5136743;27;20058;-85
2022/09/29 03:52:38;;;;;;;66.55;9.10;;;6.20;99.90;;;;;;5109142;27;20063;-85
2022/09/29 03:55:04;;;;;;;97.57;9.30;;;7.30;99.90;;;;;;5138446;27;20035;-86
2022/09/29 03:57:30;;;;;;;50.67;8.38;;;6.20;99.90;;;;;;5103478;27;20032;-85
2022/09/29 03:59:56;;;;;;;43.90;7.32;;;6.10;99.90;;;;;;5093588;27;20043;-85
2022/09/29 04:02:24;;;;;;;27.17;6.45;;;7.40;99.90;;;;;;5137185;27;20039;-86
2022/09/29 04:04:49;;;;;;;50.75;8.55;;;6.10;99.90;;;;;;5152410;27;20078;-86
2022/09/29 04:07:15;;;;;;;16.23;6.30;;;6.10;99.90;;;;;;5114371;27;20038;-84
2022/09/29 04:09:42;;;;;;;11.55;6.57;;;6.10;99.90;;;;;;5139561;27;20486;-83
2022/09/29 04:12:07;;;;;;;20.02;6.72;;;6.10;99.90;;;;;;5140214;27;20063;-83
2022/09/29 04:14:33;;;;;;;11.00;7.22;;;6.20;99.90;;;;;;5123702;27;20126;-83
2022/09/29 04:16:59;;;;;;;48.40;7.30;;;6.20;99.90;;;;;;5107937;27;20041;-82
2022/09/29 04:19:24;;;;;;;21.60;6.63;;;6.20;99.90;;;;;;5124823;27;20045;-83
2022/09/29 04:21:50;;;;;;;9.93;6.65;;;6.20;99.90;;;;;;5107671;27;20046;-83
2022/09/29 04:24:16;;;;;;;20.52;6.72;;;6.20;99.90;;;;;;5105899;27;20031;-83
2022/09/29 04:26:41;;;;;;;13.32;6.63;;;6.10;99.90;;;;;;5123087;27;20046;-83
2022/09/29 04:29:07;;;;;;;21.75;6.50;;;6.10;99.90;;;;;;5104687;27;20049;-83
2022/09/29 04:31:33;;;;;;;9.95;5.95;;;6.30;99.90;;;;;;5109938;27;20039;-83
2022/09/29 04:33:58;;;;;;;25.42;6.18;;;7.00;99.90;;;;;;5115774;27;20031;-83
2022/09/29 04:36:24;;;;;;;7.35;6.00;;;6.10;99.90;;;;;;5085341;27;20038;-82
2022/09/29 04:38:50;;;;;;;15.00;6.68;;;6.10;99.90;;;;;;5097026;27;20035;-83
2022/09/29 04:41:19;;;;;;;14.20;5.72;;;7.40;99.90;;;;;;5102907;27;20049;-83
2022/09/29 04:43:45;;;;;;;42.33;8.05;;;7.30;99.90;;;;;;5117468;27;20039;-84
2022/09/29 04:46:12;;;;;;;23.10;6.03;;;6.00;99.90;;;;;;5124287;27;20091;-83
2022/09/29 04:48:38;;;;;;;22.98;5.55;;;6.00;99.90;;;;;;5134664;27;20062;-83
2022/09/29 04:51:04;;;;;;;17.17;5.65;;;6.10;99.90;;;;;;5121316;27;20038;-83
2022/09/29 04:53:30;;;;;;;30.95;5.75;;;5.90;99.90;;;;;;5104316;27;20042;-83
2022/09/29 04:55:56;;;;;;;26.70;6.07;;;5.80;99.90;;;;;;5138505;27;20035;-83
2022/09/29 04:58:22;;;;;;;13.52;5.53;;;5.80;99.90;;;;;;5138272;27;20390;-83
2022/09/29 05:00:47;;;;;;;10.18;5.57;;;6.40;99.90;;;;;;5104441;27;20039;-83
2022/09/29 05:03:13;;;;;;;46.25;6.60;;;5.80;99.90;;;;;;5138987;27;20123;-83
2022/09/29 05:05:39;;;;;;;10.82;5.68;;;6.00;99.90;;;;;;5104660;27;21017;-83
2022/09/29 05:08:05;;;;;;;16.70;5.40;;;5.80;99.90;;;;;;5139165;27;20103;-83
2022/09/29 05:10:31;;;;;;;37.03;6.78;;;5.70;99.90;;;;;;5116415;27;20074;-83
2022/09/29 05:12:57;;;;;;;128.88;9.63;;;6.90;99.90;;;;;;5129591;27;20034;-83
2022/09/29 05:15:23;;;;;;;35.65;7.47;;;5.70;99.90;;;;;;5121773;27;20043;-83
2022/09/29 05:17:49;;;;;;;106.22;7.95;;;5.70;99.90;;;;;;5138348;27;20550;-83
2022/09/29 05:20:15;;;;;;;81.57;7.50;;;6.00;99.90;;;;;;5138304;27;20039;-83
2022/09/29 05:22:41;;;;;;;81.95;7.13;;;5.60;99.90;;;;;;5121347;27;20038;-83
2022/09/29 05:25:07;;;;;;;24.98;5.63;;;5.60;99.90;;;;;;5121430;27;20030;-83
2022/09/29 05:27:35;;;;;;;25.83;5.57;;;5.50;99.90;;;;;;5117842;27;20043;-83
2022/09/29 05:30:01;;;;;;;36.13;5.90;;;5.50;99.90;;;;;;5134086;27;20035;-83
2022/09/29 05:32:26;;;;;;;94.18;8.23;;;5.50;99.90;;;;;;5118124;27;20039;-82
2022/09/29 05:34:52;;;;;;;43.70;7.00;;;5.50;99.90;;;;;;5118031;27;20546;-83
2022/09/29 05:37:18;;;;;;;91.88;7.93;;;5.70;99.90;;;;;;5101745;27;20035;-83
2022/09/29 05:39:46;;;;;;;55.63;7.53;;;5.40;99.90;;;;;;5128324;27;20039;-83
2022/09/29 05:42:12;;;;;;;120.22;9.50;;;5.40;99.90;;;;;;5120076;27;20491;-83
2022/09/29 05:44:38;;;;;;;69.60;9.15;;;5.30;99.90;;;;;;5138284;27;20095;-83
2022/09/29 05:47:03;;;;;;;55.63;6.72;;;5.30;99.90;;;;;;5120933;27;20122;-82
2022/09/29 05:49:30;;;;;;;22.02;5.93;;;5.20;99.90;;;;;;5101169;27;20047;-83
2022/09/29 05:51:57;;;;;;;52.88;7.22;;;5.20;99.90;;;;;;5106435;27;20070;-83
2022/09/29 05:54:22;;;;;;;42.10;7.40;;;5.30;99.90;;;;;;5139042;27;20042;-83
2022/09/29 05:56:49;;;;;;;19.65;7.75;;;5.20;99.90;;;;;;5104095;27;20406;-83
2022/09/29 05:59:15;;;;;;;22.60;6.68;;;5.30;99.90;;;;;;5101700;27;20444;-83
2022/09/29 06:01:41;;;;;;;19.80;6.15;;;5.30;99.90;;;;;;5155890;27;20039;-82
2022/09/29 06:04:07;;;;;;;15.55;6.00;;;5.20;99.90;;;;;;5155517;27;20098;-82
2022/09/29 06:06:35;;;;;;;18.83;6.22;;;5.20;99.90;;;;;;5138648;27;20039;-83
2022/09/29 06:09:01;;;;;;;21.40;6.50;;;6.50;99.90;;;;;;5121274;27;20055;-82
2022/09/29 06:11:30;;;;;;;35.58;7.35;;;6.80;99.90;;;;;;5125696;27;20043;-82
2022/09/29 06:14:00;;;;;;;33.13;6.03;;;5.10;99.90;;;;;;5154622;27;20054;-82
2022/09/29 06:16:28;;;;;;;28.58;5.55;;;5.10;99.90;;;;;;5140411;27;20103;-82
2022/09/29 06:18:54;;;;;;;27.73;6.32;;;5.10;99.90;;;;;;5147298;27;20099;-83
2022/09/29 06:21:25;;;;;;;64.40;7.30;;;5.10;99.90;;;;;;5155941;27;20035;-83
2022/09/29 06:23:53;;;;;;;30.65;6.38;;;5.10;99.90;;;;;;5154754;27;20416;-82
2022/09/29 06:26:19;;;;;;;28.10;5.63;;;5.80;99.90;;;;;;5138670;27;20125;-82
2022/09/29 06:28:46;;;;;;;17.02;5.53;;;5.10;99.90;;;;;;5106054;27;20047;-82
2022/09/29 06:31:17;;;;;;;12.13;5.43;;;5.10;99.90;;;;;;5121067;27;20087;-82
2022/09/29 06:33:43;;;;;;;13.43;5.55;;;5.20;99.90;;;;;;5137758;27;20035;-83
2022/09/29 06:39:05;;;;;;;13.00;5.57;;;5.20;99.90;;;;;;5150113;27;20133;-81
2022/09/29 06:41:31;;;;;;;8.95;5.63;;;5.20;99.90;;;;;;5120457;27;20095;-81
2022/09/29 06:43:56;;;;;;;11.23;5.80;;;5.10;99.90;;;;;;5138726;27;20038;-82
2022/09/29 06:46:25;;;;;;;8.88;6.38;;;5.20;99.90;;;;;;5138669;27;20035;-83
2022/09/29 06:48:54;;;;;;;11.35;5.70;;;5.50;99.90;;;;;;5156603;27;20030;-84
2022/09/29 06:51:23;;;;;;;9.65;6.00;;;5.10;99.90;;;;;;5121079;27;20043;-81
2022/09/29 06:53:49;;;;;;;9.05;6.10;;;5.70;99.90;;;;;;5175877;27;20042;-81
2022/09/29 06:56:16;;;;;;;6.97;6.20;;;5.20;99.90;;;;;;5126192;27;20043;-81
2022/09/29 06:58:41;;;;;;;6.93;6.20;;;5.20;99.90;;;;;;5138290;27;20042;-80
2022/09/29 07:01:08;;;;;;;8.55;7.13;;;5.50;99.90;;;;;;5106875;28;20482;-80
2022/09/29 07:03:34;;;;;;;7.60;6.47;;;5.30;99.90;;;;;;5114448;28;20122;-79
2022/09/29 07:06:05;;;;;;;7.90;6.90;;;5.40;99.90;;;;;;5118959;27;20067;-80
2022/09/29 07:08:31;;;;;;;8.30;6.63;;;5.40;99.90;;;;;;5136300;27;20038;-80
2022/09/29 07:10:57;;;;;;;7.32;6.45;;;5.40;99.90;;;;;;5131694;27;20120;-80
2022/09/29 07:13:24;;;;;;;7.68;6.75;;;5.50;99.90;;;;;;5154884;27;20127;-82
2022/09/29 07:15:50;;;;;;;8.13;7.03;;;5.60;99.90;;;;;;5132889;27;20039;-82
2022/09/29 07:18:16;;;;;;;8.90;7.18;;;5.60;99.90;;;;;;5132567;28;20023;-83
2022/09/29 07:20:41;;;;;;;9.50;6.38;;;5.70;99.90;;;;;;5096048;28;20587;-81
2022/09/29 07:23:07;;;;;;;8.40;6.95;;;5.80;99.90;;;;;;5115554;27;20042;-81
2022/09/29 07:25:34;;;;;;;8.07;7.28;;;5.80;99.90;;;;;;5155599;27;20061;-85
2022/09/29 07:28:00;;;;;;;9.50;6.80;;;5.90;99.90;;;;;;5120376;27;20039;-82
2022/09/29 07:30:30;;;;;;;8.93;7.20;;;6.00;99.90;;;;;;5137667;27;20394;-82
2022/09/29 07:32:56;;;;;;;8.38;7.57;;;6.00;99.90;;;;;;5154892;27;20038;-82
2022/09/29 07:35:22;;;;;;;8.40;7.13;;;6.60;99.90;;;;;;5136716;27;20039;-82
2022/09/29 07:37:55;;;;;;;8.40;7.55;;;6.10;99.90;;;;;;5138066;27;20041;-83
2022/09/29 07:40:22;;;;;;;9.80;7.93;;;6.20;99.90;;;;;;5120519;27;20030;-82
2022/09/29 07:42:48;;;;;;;12.15;7.75;;;6.30;99.90;;;;;;5120089;27;20043;-83
2022/09/29 07:45:15;;;;;;;9.43;8.30;;;6.40;99.90;;;;;;5136493;27;20038;-81
2022/09/29 07:47:41;;;;;;;10.05;9.02;;;6.50;99.90;;;;;;5135550;27;20038;-81
2022/09/29 07:50:07;;;;;;;12.10;10.30;;;6.60;99.90;;;;;;5136894;27;20057;-81
2022/09/29 07:52:32;;;;;;;13.80;10.65;;;6.60;99.90;;;;;;5137496;27;20038;-82
2022/09/29 07:54:58;;;;;;;11.85;10.55;;;6.80;99.90;;;;;;5140723;27;20386;-80
2022/09/29 07:57:24;;;;;;;13.77;10.27;;;6.80;99.90;;;;;;5159226;27;20121;-84
2022/09/29 07:59:49;;;;;;;13.25;11.70;;;7.40;99.90;;;;;;5107340;27;20043;-84
2022/09/29 08:02:15;;;;;;;12.30;10.40;;;7.00;99.90;;;;;;5114785;27;20050;-85
2022/09/29 08:04:42;;;;;;;15.75;10.77;;;7.30;99.90;;;;;;5108083;27;20118;-86
2022/09/29 08:07:09;;;;;;;12.55;10.68;;;7.60;99.90;;;;;;5125025;27;20054;-85
2022/09/29 08:09:34;;;;;;;17.15;11.73;;;7.30;99.90;;;;;;5140546;27;20046;-85
2022/09/29 08:12:01;;;;;;;15.63;12.52;;;7.40;99.90;;;;;;5106564;27;20458;-84
2022/09/29 08:14:27;;;;;;;14.23;11.85;;;7.80;99.90;;;;;;5107407;27;20042;-84
2022/09/29 08:16:53;;;;;;;14.93;11.63;;;7.50;99.90;;;;;;5108281;27;20035;-87
2022/09/29 08:19:18;;;;;;;14.05;12.00;;;7.60;99.90;;;;;;5106450;27;20035;-88
2022/09/29 08:21:48;;;;;;;14.93;12.10;;;7.60;99.90;;;;;;5125763;27;20110;-85
2022/09/29 08:24:16;;;;;;;16.33;12.65;;;8.60;99.90;;;;;;5142964;27;20095;-87
2022/09/29 08:26:42;;;;;;;16.02;12.15;;;7.80;99.90;;;;;;5142680;27;20497;-85
2022/09/29 08:29:08;;;;;;;18.15;12.15;;;7.80;99.90;;;;;;5141684;27;20064;-86
2022/09/29 08:31:36;;;;;;;15.10;12.02;;;8.20;99.90;;;;;;5139850;27;20042;-84
2022/09/29 08:34:02;;;;;;;18.70;12.20;;;8.00;99.90;;;;;;5126977;27;20030;-83
2022/09/29 08:36:28;;;;;;;16.58;12.60;;;8.10;99.90;;;;;;5157182;27;20034;-84
2022/09/29 08:38:55;;;;;;;15.00;11.70;;;8.10;99.90;;;;;;5138532;27;20034;-83
2022/09/29 08:41:27;;;;;;;17.13;11.68;;;8.30;99.90;;;;;;5132425;27;20038;-82
2022/09/29 08:44:02;;;;;;;16.95;12.52;;;8.30;99.90;;;;;;5157141;27;20142;-82
2022/09/29 08:46:40;;;;;;;16.98;12.45;;;8.40;99.90;;;;;;5139630;27;20076;-82
2022/09/29 08:49:13;;;;;;;13.93;12.25;;;8.40;99.90;;;;;;5139513;27;20090;-82
2022/09/29 08:51:48;;;;;;;16.08;12.45;;;8.50;99.90;;;;;;5139836;27;20078;-82
2022/09/29 08:54:36;;;;;;;17.65;12.65;;;8.50;99.90;;;;;;5156218;27;20110;-82
2022/09/29 08:57:04;;;;;;;13.25;11.80;;;8.70;99.90;;;;;;5139588;27;20066;-82
2022/09/29 08:59:31;;;;;;;16.85;13.30;;;8.70;99.90;;;;;;5139959;27;20034;-82
2022/09/29 09:02:04;;;;;;;15.18;12.25;;;8.80;99.90;;;;;;5140063;27;20391;-82
2022/09/29 09:04:42;;;;;;;17.05;13.60;;;8.80;99.90;;;;;;5139021;27;20119;-81
2022/09/29 09:07:27;;;;;;;15.82;12.68;;;8.90;99.90;;;;;;5147554;27;20038;-83
2022/09/29 09:10:05;;;;;;;15.20;12.13;;;9.80;99.90;;;;;;5140400;27;20066;-82
2022/09/29 09:12:56;;;;;;;14.85;12.38;;;9.00;99.90;;;;;;5123021;27;20062;-82
2022/09/29 09:15:53;;;;;;;16.02;12.68;;;9.00;99.90;;;;;;5132890;27;20121;-80
2022/09/29 09:18:25;;;;;;;15.77;11.90;;;9.10;99.90;;;;;;5124463;27;20031;-81
2022/09/29 09:21:09;;;;;;;13.90;12.15;;;9.10;99.90;;;;;;5148652;27;20046;-81
2022/09/29 09:23:46;;;;;;;15.25;11.93;;;9.20;99.90;;;;;;5133921;27;20061;-82
2022/09/29 09:26:13;;;;;;;13.50;11.23;;;9.20;99.90;;;;;;5120689;27;20092;-82
2022/09/29 09:29:03;;;;;;;13.57;11.48;;;9.30;99.90;;;;;;5153306;27;20038;-80
2022/09/29 09:31:43;;;;;;;12.73;10.77;;;9.30;99.90;;;;;;5134024;27;20376;-81
2022/09/29 09:34:22;;;;;;;12.90;10.50;;;9.40;99.90;;;;;;5145437;27;20495;-80
2022/09/29 09:36:57;;;;;;;11.27;9.73;;;9.40;99.90;;;;;;5135734;27;20037;-82
2022/09/29 09:39:28;;;;;;;16.43;11.07;;;9.50;99.90;;;;;;5137832;27;20122;-82
2022/09/29 09:41:58;;;;;;;13.48;11.07;;;9.60;99.90;;;;;;5137682;27;20268;-82
2022/09/29 09:44:47;;;;;;;11.95;10.63;;;9.60;99.90;;;;;;5136463;27;20451;-81
2022/09/29 09:47:26;;;;;;;12.07;10.35;;;9.70;99.90;;;;;;5123456;27;20546;-81
2022/09/29 09:50:15;;;;;;;12.65;10.40;;;9.70;99.90;;;;;;5125495;27;20042;-81
2022/09/29 09:52:45;;;;;;;11.30;10.10;;;9.80;99.90;;;;;;5151964;27;20066;-81
2022/09/29 09:55:17;;;;;;;14.63;10.43;;;9.90;99.90;;;;;;5143833;27;20039;-81
2022/09/29 09:57:53;;;;;;;10.20;9.05;;;9.90;99.90;;;;;;5134376;27;20506;-81
2022/09/29 10:00:27;;;;;;;11.70;9.55;;;10.00;99.90;;;;;;5137576;27;20043;-81
2022/09/29 10:02:55;;;;;;;10.95;8.98;;;10.20;99.90;;;;;;5129696;27;20047;-81
2022/09/29 10:05:25;;;;;;;10.45;8.82;;;10.30;99.90;;;;;;5135504;27;20070;-82
2022/09/29 10:07:52;;;;;;;12.63;8.55;;;10.30;99.90;;;;;;5122337;27;21342;-81
2022/09/29 10:10:29;;;;;;;9.93;8.45;;;10.30;99.90;;;;;;5135406;27;20486;-82
2022/09/29 10:13:16;;;;;;;8.90;7.78;;;10.30;99.90;;;;;;5128560;27;20043;-80
2022/09/29 10:15:47;;;;;;;;;;;10.50;99.90;;;;;;5135316;27;20514;-81
2022/09/29 10:18:25;;;;;;;9.45;7.15;;;10.40;99.90;;;;;;5143889;27;19915;-81
2022/09/29 10:20:51;;;;;;;11.52;7.75;;;10.40;99.90;;;;;;5132242;27;20042;-80
2022/09/29 10:23:34;;;;;;;8.13;7.10;;;10.50;99.90;;;;;;5137461;27;20042;-81
2022/09/29 10:26:11;;;;;;;9.52;7.70;;;10.70;99.90;;;;;;5119538;27;20071;-82
2022/09/29 10:28:42;;;;;;;9.77;7.07;;;10.80;99.90;;;;;;5145300;27;20047;-81
2022/09/29 10:31:22;;;;;;;8.38;7.25;;;10.80;99.90;;;;;;5132605;27;20069;-80
2022/09/29 10:33:51;;;;;;;6.95;6.22;;;10.80;99.90;;;;;;5135391;27;20402;-80
2022/09/29 10:36:20;;;;;;;7.32;6.10;;;10.80;99.90;;;;;;5147881;27;20083;-81
2022/09/29 10:38:49;;;;;;;7.18;5.57;;;10.90;99.90;;;;;;5146887;27;20081;-81
2022/09/29 10:41:15;;;;;;;7.07;6.05;;;10.90;99.90;;;;;;5137318;27;20175;-80
2022/09/29 10:43:43;;;;;;;7.53;6.32;;;10.90;99.90;;;;;;5125298;27;20039;-80
2022/09/29 10:46:33;;;;;;;9.75;6.47;;;10.90;99.90;;;;;;5136749;27;20039;-80
2022/09/29 10:49:12;;;;;;;7.30;6.13;;;11.00;99.90;;;;;;5126502;27;20055;-81
2022/09/29 10:51:39;;;;;;;7.95;6.82;;;11.00;99.90;;;;;;5153053;27;20542;-82
2022/09/29 10:54:10;;;;;;;9.00;6.28;;;11.00;99.90;;;;;;5131956;27;20042;-81
2022/09/29 10:56:43;;;;;;;7.47;6.43;;;11.00;99.90;;;;;;5138295;27;20042;-82
2022/09/29 10:59:10;;;;;;;7.07;4.82;;;11.00;99.90;;;;;;5142156;27;20463;-82
2022/09/29 11:01:51;;;;;;;8.55;5.78;;;11.10;99.90;;;;;;5137307;27;20175;-82
2022/09/29 11:04:35;;;;;;;8.63;6.15;;;11.10;99.90;;;;;;5138201;27;20047;-82
2022/09/29 11:07:10;;;;;;;6.20;5.60;;;11.20;99.90;;;;;;5130190;27;20060;-82
2022/09/29 11:09:43;;;;;;;5.90;5.30;;;11.20;99.90;;;;;;5137053;27;20050;-83
2022/09/29 11:12:28;;;;;;;6.00;5.40;;;11.20;99.90;;;;;;5154693;27;20087;-83
2022/09/29 11:14:54;;;;;;;7.82;5.40;;;11.30;99.90;;;;;;5140711;27;20034;-82
2022/09/29 11:17:27;;;;;;;9.65;6.95;;;11.30;99.90;;;;;;5104819;27;20035;-82
2022/09/29 11:19:59;;;;;;;11.15;7.32;;;11.40;99.90;;;;;;5144858;27;20045;-83
2022/09/29 11:22:52;;;;;;;10.85;7.40;;;11.40;99.90;;;;;;5154037;27;20043;-82
2022/09/29 11:25:43;;;;;;;9.57;7.43;;;11.40;99.90;;;;;;5159581;27;20065;-82
2022/09/29 11:28:54;;;;;;;9.75;7.82;;;11.50;99.90;;;;;;5158616;27;20038;-82
2022/09/29 11:31:39;;;;;;;7.32;5.80;;;11.50;99.90;;;;;;5152512;27;20107;-82
2022/09/29 11:34:17;;;;;;;8.95;6.85;;;11.70;99.90;;;;;;5153501;27;20045;-81
2022/09/29 11:37:07;;;;;;;7.97;7.07;;;11.70;99.90;;;;;;5132644;27;20042;-81
2022/09/29 11:39:56;;;;;;;9.60;7.63;;;11.90;99.90;;;;;;5133430;27;20100;-81
2022/09/29 11:42:36;;;;;;;9.18;7.88;;;12.10;99.90;;;;;;5135336;27;20092;-81
2022/09/29 11:45:03;;;;;;;10.20;6.80;;;12.20;99.90;;;;;;5156641;27;20439;-81
2022/09/29 11:48:00;;;;;;;6.03;5.38;;;11.70;99.90;;;;;;5125365;27;20081;-81
2022/09/29 11:50:31;;;;;;;7.65;6.68;;;12.30;99.90;;;;;;5151598;27;20050;-82
2022/09/29 11:52:57;;;;;;;8.13;5.82;;;12.30;99.90;;;;;;5139684;27;20043;-82
2022/09/29 11:55:50;;;;;;;10.93;8.20;;;12.40;99.90;;;;;;5155927;27;20394;-82
2022/09/29 11:58:45;;;;;;;8.32;6.22;;;12.40;99.90;;;;;;5134169;27;20443;-82
2022/09/29 12:01:47;;;;;;;9.35;7.47;;;12.40;99.90;;;;;;5134126;27;20039;-82
2022/09/29 12:04:21;;;;;;;8.20;6.78;;;12.40;99.90;;;;;;5150889;27;20041;-82
2022/09/29 12:06:54;;;;;;;8.18;6.93;;;12.40;99.90;;;;;;5132448;27;20043;-82
2022/09/29 12:10:02;;;;;;;8.38;6.82;;;12.40;99.90;;;;;;5140666;27;20042;-81
2022/09/29 12:12:49;;;;;;;7.57;6.25;;;12.50;99.90;;;;;;5148599;27;20035;-82
2022/09/29 12:15:31;;;;;;;6.82;5.82;;;12.50;99.90;;;;;;5140238;27;20550;-81
2022/09/29 12:18:02;;;;;;;6.35;5.25;;;12.60;99.90;;;;;;5147695;27;20075;-81
2022/09/29 12:20:35;;;;;;;5.97;4.90;;;12.60;99.90;;;;;;5134392;27;20391;-81
2022/09/29 12:23:04;;;;;;;6.32;4.45;;;12.60;99.90;;;;;;5129639;27;20043;-83
2022/09/29 12:25:36;;;;;;;5.68;4.13;;;12.70;99.90;;;;;;5147601;27;20095;-82
2022/09/29 12:28:15;;;;;;;5.68;4.20;;;12.70;99.90;;;;;;5147664;27;20126;-81
2022/09/29 12:30:57;;;;;;;5.90;4.03;;;12.70;99.90;;;;;;5158085;27;20061;-81
2022/09/29 12:33:53;;;;;;;4.07;3.40;;;12.70;99.90;;;;;;5133110;27;20076;-82
2022/09/29 12:36:44;;;;;;;4.10;2.58;;;12.80;99.90;;;;;;5125255;27;20050;-83
2022/09/29 12:39:16;;;;;;;3.78;2.95;;;12.80;99.90;;;;;;5138073;27;20034;-83
2022/09/29 12:42:01;;;;;;;3.85;2.92;;;12.80;99.90;;;;;;5155493;27;20038;-82
2022/09/29 12:44:37;;;;;;;2.72;2.05;;;12.90;99.90;;;;;;5133891;27;20034;-83
2022/09/29 12:47:27;;;;;;;3.08;2.35;;;12.90;99.90;;;;;;5137934;27;20062;-82
2022/09/29 12:49:59;;;;;;;2.65;1.77;;;13.00;99.90;;;;;;5132333;27;20172;-82
2022/09/29 12:52:32;;;;;;;2.13;1.40;;;13.00;99.90;;;;;;5153595;27;20126;-84
2022/09/29 12:55:04;;;;;;;2.03;1.60;;;13.10;99.90;;;;;;5147023;27;20034;-82
2022/09/29 12:57:38;;;;;;;2.97;2.10;;;13.20;99.90;;;;;;5146994;27;20054;-82
2022/09/29 13:00:10;;;;;;;2.33;1.60;;;13.20;99.90;;;;;;5132327;27;20035;-83
2022/09/29 13:03:01;;;;;;;4.72;2.90;;;13.30;99.90;;;;;;5138116;27;20050;-82
2022/09/29 13:05:35;;;;;;;5.25;3.85;;;13.40;99.90;;;;;;5155367;27;20413;-82
2022/09/29 13:08:26;;;;;;;5.28;4.13;;;13.40;99.90;;;;;;5137439;27;20105;-82
2022/09/29 13:11:04;;;;;;;6.30;3.65;;;13.50;99.90;;;;;;5152840;27;20150;-83
2022/09/29 13:13:41;;;;;;;4.80;3.90;;;13.50;99.90;;;;;;5131911;27;20362;-83
2022/09/29 13:16:45;;;;;;;3.90;3.33;;;13.60;99.90;;;;;;5134975;27;20050;-82